Řízení letového provozu České republiky  
Aktualizace dat:  25.05.2024 08:42:38 UTC English version
   METEO Zobrazení stránky:  25.05.2024 08:44:19 UTC  
vysvětlivky
METAR EDAC 250750Z 23006KT 200V270 9999 FEW012 18/14 Q1017=
METAR EDDB 250820Z AUTO 18007KT 140V210 9999 BKN014 OVC018 18/14 Q1018 BECMG SCT015 BKN020=
METAR EDDC 250820Z AUTO VRB03KT 9999 FEW028 20/13 Q1018 NOSIG=
METAR EDDE 250820Z AUTO 24004KT 200V300 9999 SCT020 SCT039 16/13 Q1017 NOSIG=
METAR EDDF 250820Z AUTO VRB02KT 9999 BKN015 18/13 Q1018 BECMG SCT025=
METAR EDDM 250820Z AUTO 28003KT 250V310 9999 SHRA FEW///TCU 12/10 Q1019 BECMG NSW=
METAR EDDN 250820Z AUTO VRB02KT 9999 SCT016 SCT025 17/11 Q1018 NOSIG=
METAR EDDP 250820Z AUTO 18005KT 150V210 6000 OVC002 14/13 Q1018 TEMPO BKN005=
METAR EDQM 250820Z 19005KT 140V250 9999 FEW013 SCT015 15/11 Q1018=
METAR EPBY 250830Z VRB05KT 9999 FEW021 22/15 Q1019=
METAR EPGD 250830Z 12007KT 090V150 CAVOK 21/13 Q1020=
METAR EPKK 250830Z VRB02KT 9999 FEW039 22/11 Q1020=
METAR EPKT 250830Z 12005KT 080V170 CAVOK 21/12 Q1020=
METAR EPLB 250830Z 16007KT 140V200 CAVOK 21/13 Q1021=
METAR EPLL 250830Z VRB03KT 9999 FEW022 21/14 Q1020=
METAR EPMO 250830Z 12007KT 080V150 CAVOK 24/13 Q1020=
METAR EPPO 250830Z 11004KT 070V190 CAVOK 21/16 Q1019=
METAR EPRZ 250830Z 22005KT 170V250 CAVOK 22/12 Q1021=
METAR EPWA 250830Z 14010KT CAVOK 23/13 Q1020 NOSIG=
METAR EPWR 250830Z 18009KT 9999 FEW033 22/15 Q1019=
METAR LHBP 250830Z 09007KT 050V120 9999 FEW022 SCT088 21/15 Q1019 NOSIG=
METAR LHPR 250815Z AUTO 13008KT 090V170 6000 NSC 22/15 Q1019 NOSIG=
METAR LHSM 250815Z AUTO 15006KT 080V200 CAVOK 22/16 Q1018 NOSIG=
SPECI LKBC 250838Z AUTO 19003KT 120V240 //// // BKN010 BKN013 15/12 Q1018=
METAR LKCR 250830Z AUTO 14008KT 110V180 9999 BKN028 BKN100 20/14 Q1018=
METAR LKCS 250830Z AUTO 36004KT 300V050 9999 FEW015/// 17/12 Q1018=
METAR LKCV 250830Z 15008KT 9999 BKN024 BKN035 19/13 Q1018 NOSIG RMK WHT WHT=
METAR LKKB 250830Z 05004KT 340V100 9999 BKN022 19/14 Q1018 NOSIG RMK WHT WHT=
METAR LKKU 250800Z 13006KT CAVOK 18/13 Q1019=
METAR LKKV 250830Z 31006KT 290V360 9999 SCT016 15/12 Q1019=
METAR LKLN 250830Z AUTO VRB03KT 9999 FEW012 17/12 Q1018=
SPECI LKMT 250838Z VRB02KT 9999 TS VCSH FEW027CB 21/15 Q1019=
METAR LKNA 250830Z 16007KT 9999 BKN007 OVC014 15/14 Q1019 RMK BLACK=
METAR LKPD 250830Z 11005KT 060V160 9999 SCT023 BKN090 19/14 Q1018 NOSIG RMK BLU BLU=
METAR LKPJ 250830Z AUTO 11005KT 090V160 9999 BKN018/// BKN027/// 19/15 Q1019 RETS=
SPECI LKPR 250840Z 34004KT 290V030 0900 R24/0900U R30/1800U FG OVC002 14/14 Q1018=
METAR LKTB 250830Z 18004KT 130V210 9999 FEW018CB SCT027 19/15 Q1019 RETS NOSIG=
METAR LKTH 250830Z AUTO VRB06KT 9999 BKN019 18/12 Q1019=
METAR LKVO NIL
METAR LOWG 250820Z AUTO 08004KT 360V140 9999 FEW028 20/13 Q1018 NOSIG=
METAR LOWI 250820Z VRB02KT 9999 -SHRA FEW010 SCT025 BKN050 14/10 Q1018 TEMPO SHRA=
METAR LOWK 250820Z AUTO VRB02KT 9999 NCD 17/10 Q1018 NOSIG=
METAR LOWL 250820Z AUTO 28005KT 250V320 9999 FEW014 BKN016 16/12 Q1018 NOSIG=
METAR LOWS 250820Z AUTO 35005KT 300V030 9999 SCT020 BKN050 14/10 Q1019 NOSIG=
METAR LOWW 250820Z 34003KT 290V040 6000 SHRA FEW005 FEW040CB 16/15 Q1019 TEMPO 2500 TSRA=
METAR LOXT 250750Z 22003KT 25KM FEW012SC BKN016SC BKN100AC 18/13 Q1018 RMK BKN=
METAR LOXZ 250820Z VRB03KT 9999 FEW045 BKN250 15/10 Q1018 NOSIG=
METAR LZIB 250830Z 12007KT 080V150 9999 SCT025 21/15 Q1019 NOSIG=
METAR LZKZ 250830Z VRB01KT CAVOK 22/14 Q1021 NOSIG=
METAR LZMC 250800Z 13012KT 9999 SCT023TCU BKN030 20/15 Q1019=
METAR LZPP 250830Z 36003KT 330V040 9999 SHRA SCT037 16/15 Q1019 RETS=
METAR LZSL 250800Z VRB02KT 9999 FEW045 20/12 Q1021=
METAR LZTT 250830Z 13003KT 050V200 9999 FEW040 19/12 Q1022 NOSIG=
METAR LZZI 250830Z 10005KT 350V150 9999 FEW036 21/14 Q1020=